sensor_id;sensor_type;location;lat;lon;timestamp;P1;durP1;ratioP1;P2;durP2;ratioP2
42200;SDS011;27869;51.442;7.540;2023-04-03T00:00:32;12.35;;;4.47;;
42200;SDS011;27869;51.442;7.540;2023-04-03T00:03:01;13.95;;;5.18;;
42200;SDS011;27869;51.442;7.540;2023-04-03T00:05:27;13.40;;;5.43;;
42200;SDS011;27869;51.442;7.540;2023-04-03T00:07:55;12.98;;;4.90;;
42200;SDS011;27869;51.442;7.540;2023-04-03T00:10:21;13.80;;;5.05;;
42200;SDS011;27869;51.442;7.540;2023-04-03T00:12:48;12.52;;;5.15;;
42200;SDS011;27869;51.442;7.540;2023-04-03T00:15:15;13.77;;;4.55;;
42200;SDS011;27869;51.442;7.540;2023-04-03T00:17:42;14.43;;;4.63;;
42200;SDS011;27869;51.442;7.540;2023-04-03T00:20:11;14.05;;;4.53;;
42200;SDS011;27869;51.442;7.540;2023-04-03T00:22:38;15.57;;;5.18;;
42200;SDS011;27869;51.442;7.540;2023-04-03T00:25:05;13.10;;;4.25;;
42200;SDS011;27869;51.442;7.540;2023-04-03T00:27:32;12.27;;;3.88;;
42200;SDS011;27869;51.442;7.540;2023-04-03T00:30:02;13.18;;;4.03;;
42200;SDS011;27869;51.442;7.540;2023-04-03T00:32:29;13.02;;;4.50;;
42200;SDS011;27869;51.442;7.540;2023-04-03T00:34:56;12.35;;;4.22;;
42200;SDS011;27869;51.442;7.540;2023-04-03T00:37:24;13.80;;;4.43;;
42200;SDS011;27869;51.442;7.540;2023-04-03T00:39:51;12.57;;;4.57;;
42200;SDS011;27869;51.442;7.540;2023-04-03T00:42:18;11.15;;;3.92;;
42200;SDS011;27869;51.442;7.540;2023-04-03T00:47:54;12.32;;;4.43;;
42200;SDS011;27869;51.442;7.540;2023-04-03T00:52:52;11.38;;;3.88;;
42200;SDS011;27869;51.442;7.540;2023-04-03T00:55:20;12.15;;;3.70;;
42200;SDS011;27869;51.442;7.540;2023-04-03T00:57:47;13.25;;;3.88;;
42200;SDS011;27869;51.442;7.540;2023-04-03T01:00:16;13.43;;;4.18;;
42200;SDS011;27869;51.442;7.540;2023-04-03T01:02:47;12.63;;;3.50;;
42200;SDS011;27869;51.442;7.540;2023-04-03T01:05:14;12.38;;;4.28;;
42200;SDS011;27869;51.442;7.540;2023-04-03T01:07:42;12.70;;;4.18;;
42200;SDS011;27869;51.442;7.540;2023-04-03T01:10:12;12.57;;;4.07;;
42200;SDS011;27869;51.442;7.540;2023-04-03T01:12:43;11.65;;;4.03;;
42200;SDS011;27869;51.442;7.540;2023-04-03T01:15:12;13.20;;;4.20;;
42200;SDS011;27869;51.442;7.540;2023-04-03T01:17:42;12.88;;;4.13;;
42200;SDS011;27869;51.442;7.540;2023-04-03T01:23:46;11.57;;;3.90;;
42200;SDS011;27869;51.442;7.540;2023-04-03T01:26:22;11.02;;;3.00;;
42200;SDS011;27869;51.442;7.540;2023-04-03T01:28:48;11.18;;;4.03;;
42200;SDS011;27869;51.442;7.540;2023-04-03T01:31:18;11.98;;;3.30;;
42200;SDS011;27869;51.442;7.540;2023-04-03T01:33:51;10.38;;;3.17;;
42200;SDS011;27869;51.442;7.540;2023-04-03T01:36:19;11.55;;;3.50;;
42200;SDS011;27869;51.442;7.540;2023-04-03T01:38:47;11.43;;;3.25;;
42200;SDS011;27869;51.442;7.540;2023-04-03T01:41:15;12.95;;;3.95;;
42200;SDS011;27869;51.442;7.540;2023-04-03T01:43:42;11.65;;;3.30;;
42200;SDS011;27869;51.442;7.540;2023-04-03T01:46:09;11.95;;;3.72;;
42200;SDS011;27869;51.442;7.540;2023-04-03T01:48:36;11.65;;;4.20;;
42200;SDS011;27869;51.442;7.540;2023-04-03T01:51:04;13.35;;;3.88;;
42200;SDS011;27869;51.442;7.540;2023-04-03T01:53:31;11.73;;;3.58;;
42200;SDS011;27869;51.442;7.540;2023-04-03T01:55:58;17.48;;;3.95;;
42200;SDS011;27869;51.442;7.540;2023-04-03T01:58:25;11.32;;;3.85;;
42200;SDS011;27869;51.442;7.540;2023-04-03T02:00:52;12.20;;;3.47;;
42200;SDS011;27869;51.442;7.540;2023-04-03T02:03:19;14.57;;;4.40;;
42200;SDS011;27869;51.442;7.540;2023-04-03T02:05:46;13.88;;;3.90;;
42200;SDS011;27869;51.442;7.540;2023-04-03T02:08:15;10.98;;;3.13;;
42200;SDS011;27869;51.442;7.540;2023-04-03T02:10:43;13.10;;;4.28;;
42200;SDS011;27869;51.442;7.540;2023-04-03T02:13:10;11.20;;;3.53;;
42200;SDS011;27869;51.442;7.540;2023-04-03T02:15:37;16.00;;;4.05;;
42200;SDS011;27869;51.442;7.540;2023-04-03T02:18:04;12.70;;;3.78;;
42200;SDS011;27869;51.442;7.540;2023-04-03T02:20:31;12.93;;;4.15;;
42200;SDS011;27869;51.442;7.540;2023-04-03T02:22:58;11.90;;;4.10;;
42200;SDS011;27869;51.442;7.540;2023-04-03T02:25:27;11.60;;;4.00;;
42200;SDS011;27869;51.442;7.540;2023-04-03T02:27:54;13.20;;;3.88;;
42200;SDS011;27869;51.442;7.540;2023-04-03T02:30:20;10.88;;;3.60;;
42200;SDS011;27869;51.442;7.540;2023-04-03T02:32:47;10.48;;;3.53;;
42200;SDS011;27869;51.442;7.540;2023-04-03T02:35:14;13.30;;;3.78;;
42200;SDS011;27869;51.442;7.540;2023-04-03T02:37:41;10.40;;;3.42;;
42200;SDS011;27869;51.442;7.540;2023-04-03T02:40:08;9.93;;;3.13;;
42200;SDS011;27869;51.442;7.540;2023-04-03T02:42:37;12.63;;;3.70;;
42200;SDS011;27869;51.442;7.540;2023-04-03T02:45:05;11.57;;;3.10;;
42200;SDS011;27869;51.442;7.540;2023-04-03T02:47:32;9.98;;;3.40;;
42200;SDS011;27869;51.442;7.540;2023-04-03T02:49:59;11.63;;;3.25;;
42200;SDS011;27869;51.442;7.540;2023-04-03T02:52:26;8.25;;;2.20;;
42200;SDS011;27869;51.442;7.540;2023-04-03T02:54:53;11.05;;;3.40;;
42200;SDS011;27869;51.442;7.540;2023-04-03T02:57:20;9.90;;;2.47;;
42200;SDS011;27869;51.442;7.540;2023-04-03T02:59:49;10.50;;;3.03;;
42200;SDS011;27869;51.442;7.540;2023-04-03T03:02:15;9.35;;;2.47;;
42200;SDS011;27869;51.442;7.540;2023-04-03T03:04:42;12.85;;;2.70;;
42200;SDS011;27869;51.442;7.540;2023-04-03T03:07:09;10.10;;;2.50;;
42200;SDS011;27869;51.442;7.540;2023-04-03T03:09:36;10.70;;;2.80;;
42200;SDS011;27869;51.442;7.540;2023-04-03T03:12:03;8.20;;;2.33;;
42200;SDS011;27869;51.442;7.540;2023-04-03T03:14:30;8.13;;;2.60;;
42200;SDS011;27869;51.442;7.540;2023-04-03T03:16:58;7.57;;;1.85;;
42200;SDS011;27869;51.442;7.540;2023-04-03T03:19:25;8.70;;;2.25;;
42200;SDS011;27869;51.442;7.540;2023-04-03T03:21:52;8.95;;;1.88;;
42200;SDS011;27869;51.442;7.540;2023-04-03T03:24:19;10.02;;;1.90;;
42200;SDS011;27869;51.442;7.540;2023-04-03T03:26:46;6.90;;;1.98;;
42200;SDS011;27869;51.442;7.540;2023-04-03T03:29:13;7.65;;;1.60;;
42200;SDS011;27869;51.442;7.540;2023-04-03T03:31:39;8.05;;;1.70;;
42200;SDS011;27869;51.442;7.540;2023-04-03T03:34:08;8.10;;;1.67;;
42200;SDS011;27869;51.442;7.540;2023-04-03T03:36:35;5.28;;;1.45;;
42200;SDS011;27869;51.442;7.540;2023-04-03T03:39:01;9.38;;;1.67;;
42200;SDS011;27869;51.442;7.540;2023-04-03T03:41:28;6.45;;;1.55;;
42200;SDS011;27869;51.442;7.540;2023-04-03T03:43:56;7.38;;;1.48;;
42200;SDS011;27869;51.442;7.540;2023-04-03T03:46:22;7.85;;;1.40;;
42200;SDS011;27869;51.442;7.540;2023-04-03T03:48:49;10.35;;;2.00;;
42200;SDS011;27869;51.442;7.540;2023-04-03T03:51:18;8.48;;;1.48;;
42200;SDS011;27869;51.442;7.540;2023-04-03T03:53:44;5.88;;;1.48;;
42200;SDS011;27869;51.442;7.540;2023-04-03T03:56:11;5.30;;;1.38;;
42200;SDS011;27869;51.442;7.540;2023-04-03T03:58:38;5.85;;;1.63;;
42200;SDS011;27869;51.442;7.540;2023-04-03T04:01:05;6.05;;;1.33;;
42200;SDS011;27869;51.442;7.540;2023-04-03T04:03:33;5.70;;;1.58;;
42200;SDS011;27869;51.442;7.540;2023-04-03T04:06:00;6.95;;;1.50;;
42200;SDS011;27869;51.442;7.540;2023-04-03T04:08:28;7.38;;;1.70;;
42200;SDS011;27869;51.442;7.540;2023-04-03T04:10:55;7.55;;;1.55;;
42200;SDS011;27869;51.442;7.540;2023-04-03T04:13:22;7.70;;;1.60;;
42200;SDS011;27869;51.442;7.540;2023-04-03T04:15:49;11.60;;;2.00;;
42200;SDS011;27869;51.442;7.540;2023-04-03T04:18:16;7.03;;;1.35;;
42200;SDS011;27869;51.442;7.540;2023-04-03T04:20:45;7.13;;;1.50;;
42200;SDS011;27869;51.442;7.540;2023-04-03T04:23:12;7.97;;;1.50;;
42200;SDS011;27869;51.442;7.540;2023-04-03T04:25:40;9.63;;;1.92;;
42200;SDS011;27869;51.442;7.540;2023-04-03T04:28:07;11.05;;;2.60;;
42200;SDS011;27869;51.442;7.540;2023-04-03T04:30:34;9.68;;;2.47;;
42200;SDS011;27869;51.442;7.540;2023-04-03T04:33:00;7.78;;;2.08;;
42200;SDS011;27869;51.442;7.540;2023-04-03T04:35:27;8.13;;;1.95;;
42200;SDS011;27869;51.442;7.540;2023-04-03T04:37:55;13.02;;;2.25;;
42200;SDS011;27869;51.442;7.540;2023-04-03T04:40:22;8.93;;;2.13;;
42200;SDS011;27869;51.442;7.540;2023-04-03T04:42:50;9.63;;;2.25;;
42200;SDS011;27869;51.442;7.540;2023-04-03T04:45:17;10.25;;;2.08;;
42200;SDS011;27869;51.442;7.540;2023-04-03T04:47:44;8.55;;;1.70;;
42200;SDS011;27869;51.442;7.540;2023-04-03T04:50:11;9.27;;;2.10;;
42200;SDS011;27869;51.442;7.540;2023-04-03T04:52:38;12.32;;;2.88;;
42200;SDS011;27869;51.442;7.540;2023-04-03T04:55:06;11.10;;;2.20;;
42200;SDS011;27869;51.442;7.540;2023-04-03T04:57:33;10.85;;;2.08;;
42200;SDS011;27869;51.442;7.540;2023-04-03T05:00:03;11.15;;;2.25;;
42200;SDS011;27869;51.442;7.540;2023-04-03T05:02:30;7.68;;;1.85;;
42200;SDS011;27869;51.442;7.540;2023-04-03T05:04:57;10.13;;;1.90;;
42200;SDS011;27869;51.442;7.540;2023-04-03T05:07:24;9.07;;;2.20;;
42200;SDS011;27869;51.442;7.540;2023-04-03T05:09:51;8.05;;;1.83;;
42200;SDS011;27869;51.442;7.540;2023-04-03T05:12:18;8.23;;;1.92;;
42200;SDS011;27869;51.442;7.540;2023-04-03T05:14:45;10.70;;;1.90;;
42200;SDS011;27869;51.442;7.540;2023-04-03T05:17:13;9.40;;;2.00;;
42200;SDS011;27869;51.442;7.540;2023-04-03T05:19:40;10.82;;;1.95;;
42200;SDS011;27869;51.442;7.540;2023-04-03T05:22:07;9.68;;;1.80;;
42200;SDS011;27869;51.442;7.540;2023-04-03T05:24:34;7.40;;;1.92;;
42200;SDS011;27869;51.442;7.540;2023-04-03T05:27:01;7.93;;;1.70;;
42200;SDS011;27869;51.442;7.540;2023-04-03T05:29:27;9.25;;;1.92;;
42200;SDS011;27869;51.442;7.540;2023-04-03T05:31:54;10.80;;;1.92;;
42200;SDS011;27869;51.442;7.540;2023-04-03T05:34:23;9.32;;;1.83;;
42200;SDS011;27869;51.442;7.540;2023-04-03T05:36:50;8.68;;;1.45;;
42200;SDS011;27869;51.442;7.540;2023-04-03T05:39:16;6.15;;;1.73;;
42200;SDS011;27869;51.442;7.540;2023-04-03T05:41:43;10.20;;;1.80;;
42200;SDS011;27869;51.442;7.540;2023-04-03T05:44:10;9.88;;;1.88;;
42200;SDS011;27869;51.442;7.540;2023-04-03T05:46:37;6.75;;;1.77;;
42200;SDS011;27869;51.442;7.540;2023-04-03T05:49:04;10.15;;;2.20;;
42200;SDS011;27869;51.442;7.540;2023-04-03T05:51:33;7.15;;;1.63;;
42200;SDS011;27869;51.442;7.540;2023-04-03T05:54:03;7.72;;;1.55;;
42200;SDS011;27869;51.442;7.540;2023-04-03T05:56:35;11.88;;;2.10;;
42200;SDS011;27869;51.442;7.540;2023-04-03T05:59:02;10.82;;;2.10;;
42200;SDS011;27869;51.442;7.540;2023-04-03T06:01:29;9.50;;;1.75;;
42200;SDS011;27869;51.442;7.540;2023-04-03T06:03:56;11.95;;;2.05;;
42200;SDS011;27869;51.442;7.540;2023-04-03T06:06:23;9.98;;;1.55;;
42200;SDS011;27869;51.442;7.540;2023-04-03T06:08:51;8.43;;;1.83;;
42200;SDS011;27869;51.442;7.540;2023-04-03T06:11:18;6.90;;;1.52;;
42200;SDS011;27869;51.442;7.540;2023-04-03T06:13:46;10.35;;;1.80;;
42200;SDS011;27869;51.442;7.540;2023-04-03T06:16:13;13.73;;;3.00;;
42200;SDS011;27869;51.442;7.540;2023-04-03T06:18:43;8.18;;;1.63;;
42200;SDS011;27869;51.442;7.540;2023-04-03T06:21:10;8.73;;;1.77;;
42200;SDS011;27869;51.442;7.540;2023-04-03T06:23:37;7.15;;;1.67;;
42200;SDS011;27869;51.442;7.540;2023-04-03T06:26:05;9.40;;;1.77;;
42200;SDS011;27869;51.442;7.540;2023-04-03T06:28:32;15.75;;;2.08;;
42200;SDS011;27869;51.442;7.540;2023-04-03T06:30:59;9.35;;;2.15;;
42200;SDS011;27869;51.442;7.540;2023-04-03T06:33:26;9.30;;;2.05;;
42200;SDS011;27869;51.442;7.540;2023-04-03T06:35:56;9.75;;;1.80;;
42200;SDS011;27869;51.442;7.540;2023-04-03T06:38:24;9.63;;;2.13;;
42200;SDS011;27869;51.442;7.540;2023-04-03T06:40:50;8.63;;;1.70;;
42200;SDS011;27869;51.442;7.540;2023-04-03T06:43:19;9.48;;;1.83;;
42200;SDS011;27869;51.442;7.540;2023-04-03T06:45:46;6.88;;;1.70;;
42200;SDS011;27869;51.442;7.540;2023-04-03T06:48:13;7.03;;;1.90;;
42200;SDS011;27869;51.442;7.540;2023-04-03T06:50:40;7.47;;;1.63;;
42200;SDS011;27869;51.442;7.540;2023-04-03T06:53:07;7.07;;;1.60;;
42200;SDS011;27869;51.442;7.540;2023-04-03T06:55:34;8.52;;;1.63;;
42200;SDS011;27869;51.442;7.540;2023-04-03T06:58:02;9.50;;;1.83;;
42200;SDS011;27869;51.442;7.540;2023-04-03T07:00:31;7.40;;;1.65;;
42200;SDS011;27869;51.442;7.540;2023-04-03T07:02:57;8.45;;;1.75;;
42200;SDS011;27869;51.442;7.540;2023-04-03T07:05:25;9.43;;;1.83;;
42200;SDS011;27869;51.442;7.540;2023-04-03T07:07:52;7.45;;;1.60;;
42200;SDS011;27869;51.442;7.540;2023-04-03T07:10:19;6.97;;;1.48;;
42200;SDS011;27869;51.442;7.540;2023-04-03T07:12:46;7.55;;;1.77;;
42200;SDS011;27869;51.442;7.540;2023-04-03T07:15:13;8.60;;;1.58;;
42200;SDS011;27869;51.442;7.540;2023-04-03T07:17:41;10.05;;;1.88;;
42200;SDS011;27869;51.442;7.540;2023-04-03T07:20:09;10.27;;;1.67;;
42200;SDS011;27869;51.442;7.540;2023-04-03T07:22:36;6.05;;;1.50;;
42200;SDS011;27869;51.442;7.540;2023-04-03T07:25:04;8.32;;;1.73;;
42200;SDS011;27869;51.442;7.540;2023-04-03T07:27:32;8.68;;;1.92;;
42200;SDS011;27869;51.442;7.540;2023-04-03T07:29:59;6.43;;;1.60;;
42200;SDS011;27869;51.442;7.540;2023-04-03T07:32:26;8.95;;;1.85;;
42200;SDS011;27869;51.442;7.540;2023-04-03T07:34:55;6.25;;;1.40;;
42200;SDS011;27869;51.442;7.540;2023-04-03T07:37:22;6.20;;;1.52;;
42200;SDS011;27869;51.442;7.540;2023-04-03T07:39:48;10.30;;;1.85;;
42200;SDS011;27869;51.442;7.540;2023-04-03T07:42:15;4.75;;;1.45;;
42200;SDS011;27869;51.442;7.540;2023-04-03T07:44:42;6.97;;;1.45;;
42200;SDS011;27869;51.442;7.540;2023-04-03T07:47:10;5.15;;;1.13;;
42200;SDS011;27869;51.442;7.540;2023-04-03T07:49:39;7.43;;;1.65;;
42200;SDS011;27869;51.442;7.540;2023-04-03T07:52:07;5.88;;;1.42;;
42200;SDS011;27869;51.442;7.540;2023-04-03T07:54:35;8.07;;;1.40;;
42200;SDS011;27869;51.442;7.540;2023-04-03T07:57:02;9.07;;;1.50;;
42200;SDS011;27869;51.442;7.540;2023-04-03T07:59:30;10.07;;;1.30;;
42200;SDS011;27869;51.442;7.540;2023-04-03T08:01:57;7.30;;;1.35;;
42200;SDS011;27869;51.442;7.540;2023-04-03T08:04:24;8.52;;;1.48;;
42200;SDS011;27869;51.442;7.540;2023-04-03T08:06:52;8.88;;;1.55;;
42200;SDS011;27869;51.442;7.540;2023-04-03T08:09:20;8.43;;;1.75;;
42200;SDS011;27869;51.442;7.540;2023-04-03T08:11:47;8.60;;;1.75;;
42200;SDS011;27869;51.442;7.540;2023-04-03T08:14:14;7.57;;;1.27;;
42200;SDS011;27869;51.442;7.540;2023-04-03T08:16:43;5.50;;;1.42;;
42200;SDS011;27869;51.442;7.540;2023-04-03T08:19:11;7.10;;;1.52;;
42200;SDS011;27869;51.442;7.540;2023-04-03T08:21:39;6.25;;;1.15;;
42200;SDS011;27869;51.442;7.540;2023-04-03T08:24:06;6.95;;;1.30;;
42200;SDS011;27869;51.442;7.540;2023-04-03T08:26:35;9.45;;;1.38;;
42200;SDS011;27869;51.442;7.540;2023-04-03T08:29:02;10.13;;;1.60;;
42200;SDS011;27869;51.442;7.540;2023-04-03T08:31:29;7.15;;;1.70;;
42200;SDS011;27869;51.442;7.540;2023-04-03T08:33:57;10.90;;;1.70;;
42200;SDS011;27869;51.442;7.540;2023-04-03T08:36:24;7.30;;;1.38;;
42200;SDS011;27869;51.442;7.540;2023-04-03T08:38:53;7.50;;;1.73;;
42200;SDS011;27869;51.442;7.540;2023-04-03T08:41:25;6.65;;;1.58;;
42200;SDS011;27869;51.442;7.540;2023-04-03T08:43:59;8.38;;;1.50;;
42200;SDS011;27869;51.442;7.540;2023-04-03T08:46:47;8.95;;;1.40;;
42200;SDS011;27869;51.442;7.540;2023-04-03T08:49:31;8.30;;;1.42;;
42200;SDS011;27869;51.442;7.540;2023-04-03T08:52:01;9.00;;;1.23;;
42200;SDS011;27869;51.442;7.540;2023-04-03T08:54:32;8.65;;;1.52;;
42200;SDS011;27869;51.442;7.540;2023-04-03T08:57:02;7.15;;;1.30;;
42200;SDS011;27869;51.442;7.540;2023-04-03T08:59:34;7.60;;;1.35;;
42200;SDS011;27869;51.442;7.540;2023-04-03T09:02:04;7.85;;;1.33;;
42200;SDS011;27869;51.442;7.540;2023-04-03T09:04:47;8.55;;;1.50;;
42200;SDS011;27869;51.442;7.540;2023-04-03T09:07:15;7.85;;;1.60;;
42200;SDS011;27869;51.442;7.540;2023-04-03T09:09:51;7.60;;;1.63;;
42200;SDS011;27869;51.442;7.540;2023-04-03T09:12:19;5.50;;;1.05;;
42200;SDS011;27869;51.442;7.540;2023-04-03T09:14:55;9.32;;;1.35;;
42200;SDS011;27869;51.442;7.540;2023-04-03T09:17:31;8.48;;;1.30;;
42200;SDS011;27869;51.442;7.540;2023-04-03T09:20:13;7.82;;;1.38;;
42200;SDS011;27869;51.442;7.540;2023-04-03T09:22:45;5.70;;;1.20;;
42200;SDS011;27869;51.442;7.540;2023-04-03T09:25:16;8.82;;;1.45;;
42200;SDS011;27869;51.442;7.540;2023-04-03T09:27:46;5.13;;;1.20;;
42200;SDS011;27869;51.442;7.540;2023-04-03T09:30:16;5.28;;;1.15;;
42200;SDS011;27869;51.442;7.540;2023-04-03T09:32:44;6.88;;;1.20;;
42200;SDS011;27869;51.442;7.540;2023-04-03T09:35:16;8.63;;;1.42;;
42200;SDS011;27869;51.442;7.540;2023-04-03T09:37:49;7.47;;;1.15;;
42200;SDS011;27869;51.442;7.540;2023-04-03T09:40:27;6.07;;;1.20;;
42200;SDS011;27869;51.442;7.540;2023-04-03T09:42:56;4.15;;;1.00;;
42200;SDS011;27869;51.442;7.540;2023-04-03T09:45:26;6.05;;;1.35;;
42200;SDS011;27869;51.442;7.540;2023-04-03T09:48:05;6.72;;;1.20;;
42200;SDS011;27869;51.442;7.540;2023-04-03T09:50:34;6.45;;;1.10;;
42200;SDS011;27869;51.442;7.540;2023-04-03T09:53:05;7.93;;;1.60;;
42200;SDS011;27869;51.442;7.540;2023-04-03T09:55:48;6.22;;;1.15;;
42200;SDS011;27869;51.442;7.540;2023-04-03T09:58:24;7.88;;;1.20;;
42200;SDS011;27869;51.442;7.540;2023-04-03T10:00:56;8.27;;;1.40;;
42200;SDS011;27869;51.442;7.540;2023-04-03T10:03:25;4.88;;;1.10;;
42200;SDS011;27869;51.442;7.540;2023-04-03T10:05:55;5.82;;;0.90;;
42200;SDS011;27869;51.442;7.540;2023-04-03T10:08:25;6.85;;;1.40;;
42200;SDS011;27869;51.442;7.540;2023-04-03T10:11:10;8.15;;;1.50;;
42200;SDS011;27869;51.442;7.540;2023-04-03T10:16:32;11.23;;;1.75;;
42200;SDS011;27869;51.442;7.540;2023-04-03T10:19:14;6.70;;;1.35;;
42200;SDS011;27869;51.442;7.540;2023-04-03T10:21:59;5.25;;;1.10;;
42200;SDS011;27869;51.442;7.540;2023-04-03T10:24:31;6.38;;;1.23;;
42200;SDS011;27869;51.442;7.540;2023-04-03T10:27:05;4.63;;;0.90;;
42200;SDS011;27869;51.442;7.540;2023-04-03T10:29:40;5.63;;;1.13;;
42200;SDS011;27869;51.442;7.540;2023-04-03T10:32:19;6.90;;;1.33;;
42200;SDS011;27869;51.442;7.540;2023-04-03T10:35:08;3.97;;;1.00;;
42200;SDS011;27869;51.442;7.540;2023-04-03T10:37:47;5.03;;;0.90;;
42200;SDS011;27869;51.442;7.540;2023-04-03T10:40:24;3.45;;;0.77;;
42200;SDS011;27869;51.442;7.540;2023-04-03T10:42:59;3.30;;;1.10;;
42200;SDS011;27869;51.442;7.540;2023-04-03T10:45:31;6.45;;;1.10;;
42200;SDS011;27869;51.442;7.540;2023-04-03T10:48:17;3.63;;;0.82;;
42200;SDS011;27869;51.442;7.540;2023-04-03T10:50:54;3.95;;;0.82;;
42200;SDS011;27869;51.442;7.540;2023-04-03T10:53:29;5.78;;;1.42;;
42200;SDS011;27869;51.442;7.540;2023-04-03T10:56:05;6.05;;;1.20;;
42200;SDS011;27869;51.442;7.540;2023-04-03T10:58:40;6.80;;;1.40;;
42200;SDS011;27869;51.442;7.540;2023-04-03T11:01:11;8.40;;;1.33;;
42200;SDS011;27869;51.442;7.540;2023-04-03T11:03:44;6.15;;;0.90;;
42200;SDS011;27869;51.442;7.540;2023-04-03T11:06:15;5.93;;;1.20;;
42200;SDS011;27869;51.442;7.540;2023-04-03T11:08:44;5.25;;;0.95;;
42200;SDS011;27869;51.442;7.540;2023-04-03T11:11:17;5.47;;;1.20;;
42200;SDS011;27869;51.442;7.540;2023-04-03T11:13:49;3.72;;;0.90;;
42200;SDS011;27869;51.442;7.540;2023-04-03T11:16:22;6.45;;;1.00;;
42200;SDS011;27869;51.442;7.540;2023-04-03T11:18:54;2.38;;;0.73;;
42200;SDS011;27869;51.442;7.540;2023-04-03T11:21:27;6.22;;;0.98;;
42200;SDS011;27869;51.442;7.540;2023-04-03T11:23:59;4.95;;;0.82;;
42200;SDS011;27869;51.442;7.540;2023-04-03T11:26:35;5.13;;;0.90;;
42200;SDS011;27869;51.442;7.540;2023-04-03T11:29:05;4.90;;;0.95;;
42200;SDS011;27869;51.442;7.540;2023-04-03T11:31:40;5.20;;;1.10;;
42200;SDS011;27869;51.442;7.540;2023-04-03T11:34:19;5.47;;;1.23;;
42200;SDS011;27869;51.442;7.540;2023-04-03T11:36:57;6.30;;;1.20;;
42200;SDS011;27869;51.442;7.540;2023-04-03T11:39:26;4.32;;;0.85;;
42200;SDS011;27869;51.442;7.540;2023-04-03T11:44:42;4.80;;;1.10;;
42200;SDS011;27869;51.442;7.540;2023-04-03T11:47:10;4.60;;;1.10;;
42200;SDS011;27869;51.442;7.540;2023-04-03T11:49:56;3.97;;;1.05;;
42200;SDS011;27869;51.442;7.540;2023-04-03T11:58:26;7.88;;;1.27;;
42200;SDS011;27869;51.442;7.540;2023-04-03T12:00:59;3.65;;;1.00;;
42200;SDS011;27869;51.442;7.540;2023-04-03T12:12:41;5.20;;;1.40;;
42200;SDS011;27869;51.442;7.540;2023-04-03T12:21:09;4.60;;;0.98;;
42200;SDS011;27869;51.442;7.540;2023-04-03T12:23:58;4.95;;;0.90;;
42200;SDS011;27869;51.442;7.540;2023-04-03T12:26:35;5.75;;;1.13;;
42200;SDS011;27869;51.442;7.540;2023-04-03T12:29:10;6.78;;;1.25;;
42200;SDS011;27869;51.442;7.540;2023-04-03T12:31:43;3.55;;;1.00;;
42200;SDS011;27869;51.442;7.540;2023-04-03T12:34:29;5.18;;;1.10;;
42200;SDS011;27869;51.442;7.540;2023-04-03T12:37:17;5.53;;;1.02;;
42200;SDS011;27869;51.442;7.540;2023-04-03T12:40:05;6.60;;;1.25;;
42200;SDS011;27869;51.442;7.540;2023-04-03T12:42:42;4.97;;;1.13;;
42200;SDS011;27869;51.442;7.540;2023-04-03T12:45:29;4.57;;;0.90;;
42200;SDS011;27869;51.442;7.540;2023-04-03T12:48:08;7.03;;;1.27;;
42200;SDS011;27869;51.442;7.540;2023-04-03T12:50:40;4.70;;;1.10;;
42200;SDS011;27869;51.442;7.540;2023-04-03T12:53:11;5.80;;;1.13;;
42200;SDS011;27869;51.442;7.540;2023-04-03T12:55:42;4.88;;;1.05;;
42200;SDS011;27869;51.442;7.540;2023-04-03T12:58:16;2.75;;;0.73;;
42200;SDS011;27869;51.442;7.540;2023-04-03T13:00:57;5.43;;;1.02;;
42200;SDS011;27869;51.442;7.540;2023-04-03T13:03:25;5.13;;;0.90;;
42200;SDS011;27869;51.442;7.540;2023-04-03T13:05:54;3.70;;;1.05;;
42200;SDS011;27869;51.442;7.540;2023-04-03T13:08:24;7.00;;;1.20;;
42200;SDS011;27869;51.442;7.540;2023-04-03T13:10:54;5.68;;;1.20;;
42200;SDS011;27869;51.442;7.540;2023-04-03T13:13:24;9.20;;;1.27;;
42200;SDS011;27869;51.442;7.540;2023-04-03T13:15:51;7.18;;;1.20;;
42200;SDS011;27869;51.442;7.540;2023-04-03T13:18:21;5.05;;;0.93;;
42200;SDS011;27869;51.442;7.540;2023-04-03T13:20:53;4.05;;;1.00;;
42200;SDS011;27869;51.442;7.540;2023-04-03T13:23:25;6.63;;;1.30;;
42200;SDS011;27869;51.442;7.540;2023-04-03T13:25:54;6.32;;;1.08;;
42200;SDS011;27869;51.442;7.540;2023-04-03T13:28:26;7.55;;;1.20;;
42200;SDS011;27869;51.442;7.540;2023-04-03T13:30:54;8.63;;;1.20;;
42200;SDS011;27869;51.442;7.540;2023-04-03T13:33:26;8.32;;;1.08;;
42200;SDS011;27869;51.442;7.540;2023-04-03T13:35:57;3.30;;;0.93;;
42200;SDS011;27869;51.442;7.540;2023-04-03T13:38:27;6.80;;;1.20;;
42200;SDS011;27869;51.442;7.540;2023-04-03T13:40:59;6.78;;;1.30;;
42200;SDS011;27869;51.442;7.540;2023-04-03T13:43:28;4.93;;;1.20;;
42200;SDS011;27869;51.442;7.540;2023-04-03T13:45:58;6.18;;;1.13;;
42200;SDS011;27869;51.442;7.540;2023-04-03T13:48:34;5.13;;;1.10;;
42200;SDS011;27869;51.442;7.540;2023-04-03T13:51:04;7.30;;;1.23;;
42200;SDS011;27869;51.442;7.540;2023-04-03T13:53:33;6.00;;;1.40;;
42200;SDS011;27869;51.442;7.540;2023-04-03T13:56:09;5.43;;;1.20;;
42200;SDS011;27869;51.442;7.540;2023-04-03T13:58:52;5.60;;;1.05;;
42200;SDS011;27869;51.442;7.540;2023-04-03T14:01:22;4.13;;;1.00;;
42200;SDS011;27869;51.442;7.540;2023-04-03T14:06:20;7.05;;;1.10;;
42200;SDS011;27869;51.442;7.540;2023-04-03T14:08:47;5.90;;;1.20;;
42200;SDS011;27869;51.442;7.540;2023-04-03T14:11:16;8.45;;;1.30;;
42200;SDS011;27869;51.442;7.540;2023-04-03T14:13:47;5.47;;;1.00;;
42200;SDS011;27869;51.442;7.540;2023-04-03T14:16:15;10.10;;;1.50;;
42200;SDS011;27869;51.442;7.540;2023-04-03T14:18:45;7.10;;;1.20;;
42200;SDS011;27869;51.442;7.540;2023-04-03T14:21:14;6.18;;;1.20;;
42200;SDS011;27869;51.442;7.540;2023-04-03T14:23:43;9.50;;;1.27;;
42200;SDS011;27869;51.442;7.540;2023-04-03T14:26:12;5.72;;;1.13;;
42200;SDS011;27869;51.442;7.540;2023-04-03T14:28:42;7.47;;;1.10;;
42200;SDS011;27869;51.442;7.540;2023-04-03T14:31:10;7.40;;;1.10;;
42200;SDS011;27869;51.442;7.540;2023-04-03T14:33:37;7.88;;;1.00;;
42200;SDS011;27869;51.442;7.540;2023-04-03T14:36:10;7.68;;;1.40;;
42200;SDS011;27869;51.442;7.540;2023-04-03T14:38:39;7.13;;;1.00;;
42200;SDS011;27869;51.442;7.540;2023-04-03T14:41:07;3.72;;;1.30;;
42200;SDS011;27869;51.442;7.540;2023-04-03T14:43:38;6.38;;;1.42;;
42200;SDS011;27869;51.442;7.540;2023-04-03T14:46:08;7.63;;;1.48;;
42200;SDS011;27869;51.442;7.540;2023-04-03T14:48:38;6.75;;;1.33;;
42200;SDS011;27869;51.442;7.540;2023-04-03T14:51:05;7.95;;;1.42;;
42200;SDS011;27869;51.442;7.540;2023-04-03T14:53:32;6.43;;;1.27;;
42200;SDS011;27869;51.442;7.540;2023-04-03T14:56:01;4.13;;;1.13;;
42200;SDS011;27869;51.442;7.540;2023-04-03T14:58:28;4.93;;;1.25;;
42200;SDS011;27869;51.442;7.540;2023-04-03T15:00:54;7.22;;;1.30;;
42200;SDS011;27869;51.442;7.540;2023-04-03T15:03:23;7.00;;;1.60;;
42200;SDS011;27869;51.442;7.540;2023-04-03T15:05:50;5.75;;;1.17;;
42200;SDS011;27869;51.442;7.540;2023-04-03T15:08:17;6.25;;;1.20;;
42200;SDS011;27869;51.442;7.540;2023-04-03T15:10:47;7.85;;;1.50;;
42200;SDS011;27869;51.442;7.540;2023-04-03T15:13:15;6.15;;;1.40;;
42200;SDS011;27869;51.442;7.540;2023-04-03T15:15:41;5.20;;;1.17;;
42200;SDS011;27869;51.442;7.540;2023-04-03T15:18:10;6.38;;;1.40;;
42200;SDS011;27869;51.442;7.540;2023-04-03T15:20:43;7.97;;;1.23;;
42200;SDS011;27869;51.442;7.540;2023-04-03T15:23:10;7.85;;;1.70;;
42200;SDS011;27869;51.442;7.540;2023-04-03T15:25:39;7.72;;;1.35;;
42200;SDS011;27869;51.442;7.540;2023-04-03T15:28:06;5.80;;;1.40;;
42200;SDS011;27869;51.442;7.540;2023-04-03T15:30:36;5.70;;;1.13;;
42200;SDS011;27869;51.442;7.540;2023-04-03T15:33:06;7.45;;;1.38;;
42200;SDS011;27869;51.442;7.540;2023-04-03T15:35:33;5.22;;;1.20;;